sensor_id;sensor_type;location;lat;lon;timestamp;temperature;humidity
57108;DHT22;42987;52.916;6.542;2022-10-20T00:01:34;8.10;99.90
57108;DHT22;42987;52.916;6.542;2022-10-20T00:04:00;8.10;99.90
57108;DHT22;42987;52.916;6.542;2022-10-20T00:06:31;8.10;99.90
57108;DHT22;42987;52.916;6.542;2022-10-20T00:09:03;8.10;99.90
57108;DHT22;42987;52.916;6.542;2022-10-20T00:11:32;8.00;99.90
57108;DHT22;42987;52.916;6.542;2022-10-20T00:13:59;8.00;99.90
57108;DHT22;42987;52.916;6.542;2022-10-20T00:16:27;8.00;99.90
57108;DHT22;42987;52.916;6.542;2022-10-20T00:18:54;8.00;99.90
57108;DHT22;42987;52.916;6.542;2022-10-20T00:21:23;8.00;99.90
57108;DHT22;42987;52.916;6.542;2022-10-20T00:23:49;8.00;99.90
57108;DHT22;42987;52.916;6.542;2022-10-20T00:26:17;7.90;99.90
57108;DHT22;42987;52.916;6.542;2022-10-20T00:28:43;8.00;99.90
57108;DHT22;42987;52.916;6.542;2022-10-20T00:31:09;7.90;99.90
57108;DHT22;42987;52.916;6.542;2022-10-20T00:33:35;7.80;99.90
57108;DHT22;42987;52.916;6.542;2022-10-20T00:36:02;7.80;99.90
57108;DHT22;42987;52.916;6.542;2022-10-20T00:38:29;7.80;99.90
57108;DHT22;42987;52.916;6.542;2022-10-20T00:40:54;7.80;99.90
57108;DHT22;42987;52.916;6.542;2022-10-20T00:43:20;7.80;99.90
57108;DHT22;42987;52.916;6.542;2022-10-20T00:45:53;7.80;99.90
57108;DHT22;42987;52.916;6.542;2022-10-20T00:48:22;7.70;99.90
57108;DHT22;42987;52.916;6.542;2022-10-20T00:50:53;7.80;99.90
57108;DHT22;42987;52.916;6.542;2022-10-20T00:53:21;7.70;99.90
57108;DHT22;42987;52.916;6.542;2022-10-20T00:55:49;7.70;99.90
57108;DHT22;42987;52.916;6.542;2022-10-20T00:58:16;7.70;99.90
57108;DHT22;42987;52.916;6.542;2022-10-20T01:00:43;7.60;99.90
57108;DHT22;42987;52.916;6.542;2022-10-20T01:03:15;7.60;99.90
57108;DHT22;42987;52.916;6.542;2022-10-20T01:05:42;7.60;99.90
57108;DHT22;42987;52.916;6.542;2022-10-20T01:08:08;7.60;99.90
57108;DHT22;42987;52.916;6.542;2022-10-20T01:10:41;7.60;99.90
57108;DHT22;42987;52.916;6.542;2022-10-20T01:13:19;7.50;99.90
57108;DHT22;42987;52.916;6.542;2022-10-20T01:18:48;7.50;99.90
57108;DHT22;42987;52.916;6.542;2022-10-20T01:21:47;7.50;99.90
57108;DHT22;42987;52.916;6.542;2022-10-20T01:40:26;7.40;99.90
57108;DHT22;42987;52.916;6.542;2022-10-20T01:42:55;7.30;99.90
57108;DHT22;42987;52.916;6.542;2022-10-20T01:45:26;7.30;99.90
57108;DHT22;42987;52.916;6.542;2022-10-20T01:47:52;7.30;99.90
57108;DHT22;42987;52.916;6.542;2022-10-20T01:50:19;7.30;99.90
57108;DHT22;42987;52.916;6.542;2022-10-20T01:52:46;7.30;99.90
57108;DHT22;42987;52.916;6.542;2022-10-20T01:55:14;7.30;99.90
57108;DHT22;42987;52.916;6.542;2022-10-20T02:00:43;7.30;99.90
57108;DHT22;42987;52.916;6.542;2022-10-20T02:03:34;7.20;99.90
57108;DHT22;42987;52.916;6.542;2022-10-20T02:06:07;7.20;99.90
57108;DHT22;42987;52.916;6.542;2022-10-20T02:08:57;7.20;99.90
57108;DHT22;42987;52.916;6.542;2022-10-20T02:13:56;7.30;99.90
57108;DHT22;42987;52.916;6.542;2022-10-20T02:16:35;7.20;99.90
57108;DHT22;42987;52.916;6.542;2022-10-20T02:19:04;7.20;99.90
57108;DHT22;42987;52.916;6.542;2022-10-20T02:21:31;7.20;99.90
57108;DHT22;42987;52.916;6.542;2022-10-20T02:23:59;7.20;99.90
57108;DHT22;42987;52.916;6.542;2022-10-20T02:26:31;7.20;99.90
57108;DHT22;42987;52.916;6.542;2022-10-20T02:29:02;7.20;99.90
57108;DHT22;42987;52.916;6.542;2022-10-20T02:31:29;7.10;99.90
57108;DHT22;42987;52.916;6.542;2022-10-20T02:33:56;7.10;99.90
57108;DHT22;42987;52.916;6.542;2022-10-20T02:36:25;7.20;99.90
57108;DHT22;42987;52.916;6.542;2022-10-20T02:38:52;7.10;99.90
57108;DHT22;42987;52.916;6.542;2022-10-20T02:41:17;7.10;99.90
57108;DHT22;42987;52.916;6.542;2022-10-20T02:43:43;7.10;99.90
57108;DHT22;42987;52.916;6.542;2022-10-20T02:46:09;7.10;99.90
57108;DHT22;42987;52.916;6.542;2022-10-20T02:48:35;7.10;99.90
57108;DHT22;42987;52.916;6.542;2022-10-20T02:51:04;7.10;99.90
57108;DHT22;42987;52.916;6.542;2022-10-20T02:53:31;7.10;99.90
57108;DHT22;42987;52.916;6.542;2022-10-20T02:55:57;7.00;99.90
57108;DHT22;42987;52.916;6.542;2022-10-20T02:58:24;7.00;99.90
57108;DHT22;42987;52.916;6.542;2022-10-20T03:00:49;7.10;99.90
57108;DHT22;42987;52.916;6.542;2022-10-20T03:03:16;7.00;99.90
57108;DHT22;42987;52.916;6.542;2022-10-20T03:05:43;7.00;99.90
57108;DHT22;42987;52.916;6.542;2022-10-20T03:08:10;6.90;99.90
57108;DHT22;42987;52.916;6.542;2022-10-20T03:10:36;7.00;99.90
57108;DHT22;42987;52.916;6.542;2022-10-20T03:13:04;7.00;99.90
57108;DHT22;42987;52.916;6.542;2022-10-20T03:15:30;6.90;99.90
57108;DHT22;42987;52.916;6.542;2022-10-20T03:17:56;6.90;99.90
57108;DHT22;42987;52.916;6.542;2022-10-20T03:20:22;6.90;99.90
57108;DHT22;42987;52.916;6.542;2022-10-20T03:22:48;6.90;99.90
57108;DHT22;42987;52.916;6.542;2022-10-20T03:25:14;6.90;99.90
57108;DHT22;42987;52.916;6.542;2022-10-20T03:27:40;7.00;99.90
57108;DHT22;42987;52.916;6.542;2022-10-20T03:30:07;6.90;99.90
57108;DHT22;42987;52.916;6.542;2022-10-20T03:32:32;6.90;99.90
57108;DHT22;42987;52.916;6.542;2022-10-20T03:35:01;6.90;99.90
57108;DHT22;42987;52.916;6.542;2022-10-20T03:37:27;6.90;99.90
57108;DHT22;42987;52.916;6.542;2022-10-20T03:39:53;6.90;99.90
57108;DHT22;42987;52.916;6.542;2022-10-20T03:42:18;6.90;99.90
57108;DHT22;42987;52.916;6.542;2022-10-20T03:44:44;6.90;99.90
57108;DHT22;42987;52.916;6.542;2022-10-20T03:47:11;6.90;99.90
57108;DHT22;42987;52.916;6.542;2022-10-20T03:49:38;6.90;99.90
57108;DHT22;42987;52.916;6.542;2022-10-20T03:52:04;6.90;99.90
57108;DHT22;42987;52.916;6.542;2022-10-20T03:54:30;6.90;99.90
57108;DHT22;42987;52.916;6.542;2022-10-20T03:56:56;6.90;99.90
57108;DHT22;42987;52.916;6.542;2022-10-20T03:59:22;6.90;99.90
57108;DHT22;42987;52.916;6.542;2022-10-20T04:01:48;6.90;99.90
57108;DHT22;42987;52.916;6.542;2022-10-20T04:04:14;6.90;99.90
57108;DHT22;42987;52.916;6.542;2022-10-20T04:06:39;6.90;99.90
57108;DHT22;42987;52.916;6.542;2022-10-20T04:09:08;6.80;99.90
57108;DHT22;42987;52.916;6.542;2022-10-20T04:11:34;6.90;99.90
57108;DHT22;42987;52.916;6.542;2022-10-20T04:14:00;6.80;99.90
57108;DHT22;42987;52.916;6.542;2022-10-20T04:16:26;6.80;99.90
57108;DHT22;42987;52.916;6.542;2022-10-20T04:18:52;6.80;99.90
57108;DHT22;42987;52.916;6.542;2022-10-20T04:21:18;6.80;99.90
57108;DHT22;42987;52.916;6.542;2022-10-20T04:23:43;6.80;99.90
57108;DHT22;42987;52.916;6.542;2022-10-20T04:26:11;6.80;99.90
57108;DHT22;42987;52.916;6.542;2022-10-20T04:28:37;6.80;99.90
57108;DHT22;42987;52.916;6.542;2022-10-20T04:31:03;6.80;99.90
57108;DHT22;42987;52.916;6.542;2022-10-20T04:33:29;6.80;99.90
57108;DHT22;42987;52.916;6.542;2022-10-20T04:36:03;6.80;99.90
57108;DHT22;42987;52.916;6.542;2022-10-20T04:38:30;6.80;99.90
57108;DHT22;42987;52.916;6.542;2022-10-20T04:40:58;6.80;99.90
57108;DHT22;42987;52.916;6.542;2022-10-20T04:43:24;6.80;99.90
57108;DHT22;42987;52.916;6.542;2022-10-20T04:45:50;6.80;99.90
57108;DHT22;42987;52.916;6.542;2022-10-20T04:48:18;6.90;99.90
57108;DHT22;42987;52.916;6.542;2022-10-20T04:50:44;6.90;99.90
57108;DHT22;42987;52.916;6.542;2022-10-20T04:53:10;6.90;99.90
57108;DHT22;42987;52.916;6.542;2022-10-20T04:55:36;6.90;99.90
57108;DHT22;42987;52.916;6.542;2022-10-20T04:58:02;6.80;99.90
57108;DHT22;42987;52.916;6.542;2022-10-20T05:00:28;6.90;99.90
57108;DHT22;42987;52.916;6.542;2022-10-20T05:02:54;6.90;99.90
57108;DHT22;42987;52.916;6.542;2022-10-20T05:05:20;6.90;99.90
57108;DHT22;42987;52.916;6.542;2022-10-20T05:07:46;6.90;99.90
57108;DHT22;42987;52.916;6.542;2022-10-20T05:10:12;6.90;99.90
57108;DHT22;42987;52.916;6.542;2022-10-20T05:12:37;6.90;99.90
57108;DHT22;42987;52.916;6.542;2022-10-20T05:15:03;6.80;99.90
57108;DHT22;42987;52.916;6.542;2022-10-20T05:17:30;6.80;99.90
57108;DHT22;42987;52.916;6.542;2022-10-20T05:19:55;6.90;99.90
57108;DHT22;42987;52.916;6.542;2022-10-20T05:22:21;6.90;99.90
57108;DHT22;42987;52.916;6.542;2022-10-20T05:24:47;6.90;99.90
57108;DHT22;42987;52.916;6.542;2022-10-20T05:27:13;6.90;99.90
57108;DHT22;42987;52.916;6.542;2022-10-20T05:29:38;6.90;99.90
57108;DHT22;42987;52.916;6.542;2022-10-20T05:32:04;6.90;99.90
57108;DHT22;42987;52.916;6.542;2022-10-20T05:34:30;6.80;99.90
57108;DHT22;42987;52.916;6.542;2022-10-20T05:36:56;6.90;99.90
57108;DHT22;42987;52.916;6.542;2022-10-20T05:39:21;6.90;99.90
57108;DHT22;42987;52.916;6.542;2022-10-20T05:41:47;6.80;99.90
57108;DHT22;42987;52.916;6.542;2022-10-20T05:44:13;6.90;99.90
57108;DHT22;42987;52.916;6.542;2022-10-20T05:46:39;6.90;99.90
57108;DHT22;42987;52.916;6.542;2022-10-20T05:49:14;6.90;99.90
57108;DHT22;42987;52.916;6.542;2022-10-20T05:51:41;6.90;99.90
57108;DHT22;42987;52.916;6.542;2022-10-20T05:54:09;6.90;99.90
57108;DHT22;42987;52.916;6.542;2022-10-20T05:56:35;6.80;99.90
57108;DHT22;42987;52.916;6.542;2022-10-20T05:59:01;6.90;99.90
57108;DHT22;42987;52.916;6.542;2022-10-20T06:01:29;6.90;99.90
57108;DHT22;42987;52.916;6.542;2022-10-20T06:04:13;6.90;99.90
57108;DHT22;42987;52.916;6.542;2022-10-20T06:06:39;6.90;99.90
57108;DHT22;42987;52.916;6.542;2022-10-20T06:09:06;6.90;99.90
57108;DHT22;42987;52.916;6.542;2022-10-20T06:11:33;6.90;99.90
57108;DHT22;42987;52.916;6.542;2022-10-20T06:13:59;6.80;99.90
57108;DHT22;42987;52.916;6.542;2022-10-20T06:16:26;6.90;99.90
57108;DHT22;42987;52.916;6.542;2022-10-20T06:18:52;6.90;99.90
57108;DHT22;42987;52.916;6.542;2022-10-20T06:21:23;6.80;99.90
57108;DHT22;42987;52.916;6.542;2022-10-20T06:23:49;6.80;99.90
57108;DHT22;42987;52.916;6.542;2022-10-20T06:26:18;6.90;99.90
57108;DHT22;42987;52.916;6.542;2022-10-20T06:28:46;6.80;99.90
57108;DHT22;42987;52.916;6.542;2022-10-20T06:31:17;6.90;99.90
57108;DHT22;42987;52.916;6.542;2022-10-20T06:33:43;6.90;99.90
57108;DHT22;42987;52.916;6.542;2022-10-20T06:36:10;6.90;99.90
57108;DHT22;42987;52.916;6.542;2022-10-20T06:38:36;6.90;99.90
57108;DHT22;42987;52.916;6.542;2022-10-20T06:41:08;6.90;99.90
57108;DHT22;42987;52.916;6.542;2022-10-20T06:43:34;6.90;99.90
57108;DHT22;42987;52.916;6.542;2022-10-20T06:46:02;6.90;99.90
57108;DHT22;42987;52.916;6.542;2022-10-20T06:48:29;6.90;99.90
57108;DHT22;42987;52.916;6.542;2022-10-20T06:51:00;6.90;99.90
57108;DHT22;42987;52.916;6.542;2022-10-20T06:53:27;7.00;99.90
57108;DHT22;42987;52.916;6.542;2022-10-20T06:58:27;6.90;99.90
57108;DHT22;42987;52.916;6.542;2022-10-20T07:01:01;6.90;99.90
57108;DHT22;42987;52.916;6.542;2022-10-20T07:03:31;6.90;99.90
57108;DHT22;42987;52.916;6.542;2022-10-20T07:05:57;7.00;99.90
57108;DHT22;42987;52.916;6.542;2022-10-20T07:08:25;7.00;99.90
57108;DHT22;42987;52.916;6.542;2022-10-20T07:11:08;7.10;99.90
57108;DHT22;42987;52.916;6.542;2022-10-20T07:13:35;7.10;99.90
57108;DHT22;42987;52.916;6.542;2022-10-20T07:16:02;7.10;99.90
57108;DHT22;42987;52.916;6.542;2022-10-20T07:18:31;7.20;99.90
57108;DHT22;42987;52.916;6.542;2022-10-20T07:20:58;7.20;99.90
57108;DHT22;42987;52.916;6.542;2022-10-20T07:23:26;7.20;99.90
57108;DHT22;42987;52.916;6.542;2022-10-20T07:25:58;7.20;99.90
57108;DHT22;42987;52.916;6.542;2022-10-20T07:28:24;7.20;99.90
57108;DHT22;42987;52.916;6.542;2022-10-20T07:30:50;7.20;99.90
57108;DHT22;42987;52.916;6.542;2022-10-20T07:33:16;7.20;99.90
57108;DHT22;42987;52.916;6.542;2022-10-20T07:35:41;7.30;99.90
57108;DHT22;42987;52.916;6.542;2022-10-20T07:38:07;7.40;99.90
57108;DHT22;42987;52.916;6.542;2022-10-20T07:40:33;7.30;99.90
57108;DHT22;42987;52.916;6.542;2022-10-20T07:43:02;7.40;99.90
57108;DHT22;42987;52.916;6.542;2022-10-20T07:45:30;7.40;99.90
57108;DHT22;42987;52.916;6.542;2022-10-20T07:47:56;7.50;99.90
57108;DHT22;42987;52.916;6.542;2022-10-20T07:50:22;7.50;99.90
57108;DHT22;42987;52.916;6.542;2022-10-20T07:52:51;7.60;99.90
57108;DHT22;42987;52.916;6.542;2022-10-20T07:55:17;7.60;99.90
57108;DHT22;42987;52.916;6.542;2022-10-20T07:57:43;7.70;99.90
57108;DHT22;42987;52.916;6.542;2022-10-20T08:00:10;7.70;99.90
57108;DHT22;42987;52.916;6.542;2022-10-20T08:02:35;7.80;99.90
57108;DHT22;42987;52.916;6.542;2022-10-20T08:05:01;7.80;99.90
57108;DHT22;42987;52.916;6.542;2022-10-20T08:07:27;7.90;99.90
57108;DHT22;42987;52.916;6.542;2022-10-20T08:09:53;8.00;99.90
57108;DHT22;42987;52.916;6.542;2022-10-20T08:12:18;8.10;99.90
57108;DHT22;42987;52.916;6.542;2022-10-20T08:14:44;8.10;99.90
57108;DHT22;42987;52.916;6.542;2022-10-20T08:17:10;8.20;99.90
57108;DHT22;42987;52.916;6.542;2022-10-20T08:19:36;8.30;99.90
57108;DHT22;42987;52.916;6.542;2022-10-20T08:22:01;8.30;99.90
57108;DHT22;42987;52.916;6.542;2022-10-20T08:24:27;8.40;99.90
57108;DHT22;42987;52.916;6.542;2022-10-20T08:26:53;8.40;99.90
57108;DHT22;42987;52.916;6.542;2022-10-20T08:29:19;8.50;99.90
57108;DHT22;42987;52.916;6.542;2022-10-20T08:31:44;8.50;99.90
57108;DHT22;42987;52.916;6.542;2022-10-20T08:34:10;8.50;99.90
57108;DHT22;42987;52.916;6.542;2022-10-20T08:36:36;8.60;99.90
57108;DHT22;42987;52.916;6.542;2022-10-20T08:39:02;8.70;99.90
57108;DHT22;42987;52.916;6.542;2022-10-20T08:41:35;8.70;99.90
57108;DHT22;42987;52.916;6.542;2022-10-20T08:44:04;8.70;99.90
57108;DHT22;42987;52.916;6.542;2022-10-20T08:46:34;8.80;99.90
57108;DHT22;42987;52.916;6.542;2022-10-20T08:49:01;8.90;99.90
57108;DHT22;42987;52.916;6.542;2022-10-20T08:51:31;8.90;99.90
57108;DHT22;42987;52.916;6.542;2022-10-20T08:53:59;9.00;99.90
57108;DHT22;42987;52.916;6.542;2022-10-20T08:56:28;9.10;99.90
57108;DHT22;42987;52.916;6.542;2022-10-20T08:58:55;9.20;99.90
57108;DHT22;42987;52.916;6.542;2022-10-20T09:01:27;9.30;99.90
57108;DHT22;42987;52.916;6.542;2022-10-20T09:04:18;9.40;99.90
57108;DHT22;42987;52.916;6.542;2022-10-20T09:06:47;9.50;99.90
57108;DHT22;42987;52.916;6.542;2022-10-20T09:09:19;9.60;99.90
57108;DHT22;42987;52.916;6.542;2022-10-20T09:11:45;9.70;99.90
57108;DHT22;42987;52.916;6.542;2022-10-20T09:14:12;9.80;99.90
57108;DHT22;42987;52.916;6.542;2022-10-20T09:16:40;9.90;99.90
57108;DHT22;42987;52.916;6.542;2022-10-20T09:19:14;9.90;99.90
57108;DHT22;42987;52.916;6.542;2022-10-20T09:21:41;10.00;99.90
57108;DHT22;42987;52.916;6.542;2022-10-20T09:24:07;10.10;99.90
57108;DHT22;42987;52.916;6.542;2022-10-20T09:29:08;10.10;99.90
57108;DHT22;42987;52.916;6.542;2022-10-20T09:31:39;10.10;99.90
57108;DHT22;42987;52.916;6.542;2022-10-20T09:36:51;10.20;99.90
57108;DHT22;42987;52.916;6.542;2022-10-20T09:39:23;10.20;99.90
57108;DHT22;42987;52.916;6.542;2022-10-20T09:42:03;10.30;99.90
57108;DHT22;42987;52.916;6.542;2022-10-20T09:44:32;10.30;99.90
57108;DHT22;42987;52.916;6.542;2022-10-20T09:47:00;10.40;99.90
57108;DHT22;42987;52.916;6.542;2022-10-20T09:51:54;10.50;99.90
57108;DHT22;42987;52.916;6.542;2022-10-20T09:54:23;10.50;99.90
57108;DHT22;42987;52.916;6.542;2022-10-20T09:56:49;10.60;99.90
57108;DHT22;42987;52.916;6.542;2022-10-20T10:01:57;10.70;99.90
57108;DHT22;42987;52.916;6.542;2022-10-20T10:04:32;10.70;99.90
57108;DHT22;42987;52.916;6.542;2022-10-20T10:06:58;10.70;99.90
57108;DHT22;42987;52.916;6.542;2022-10-20T10:09:36;10.80;99.90
57108;DHT22;42987;52.916;6.542;2022-10-20T10:12:15;10.80;99.90
57108;DHT22;42987;52.916;6.542;2022-10-20T10:15:22;10.90;99.90
57108;DHT22;42987;52.916;6.542;2022-10-20T10:17:50;11.00;99.90
57108;DHT22;42987;52.916;6.542;2022-10-20T10:22:42;11.20;99.90
57108;DHT22;42987;52.916;6.542;2022-10-20T10:25:26;11.30;99.90
57108;DHT22;42987;52.916;6.542;2022-10-20T10:27:59;11.40;99.90
57108;DHT22;42987;52.916;6.542;2022-10-20T10:30:32;11.50;99.90
57108;DHT22;42987;52.916;6.542;2022-10-20T10:33:26;11.50;99.90
57108;DHT22;42987;52.916;6.542;2022-10-20T10:35:52;11.60;99.90
57108;DHT22;42987;52.916;6.542;2022-10-20T10:38:18;11.70;99.90
57108;DHT22;42987;52.916;6.542;2022-10-20T10:41:03;11.70;99.90
57108;DHT22;42987;52.916;6.542;2022-10-20T10:43:48;11.80;99.90
57108;DHT22;42987;52.916;6.542;2022-10-20T10:46:26;11.80;99.90
57108;DHT22;42987;52.916;6.542;2022-10-20T10:48:55;11.90;99.90
57108;DHT22;42987;52.916;6.542;2022-10-20T10:57:35;12.10;99.90
57108;DHT22;42987;52.916;6.542;2022-10-20T11:00:41;12.20;99.90
57108;DHT22;42987;52.916;6.542;2022-10-20T11:14:09;12.50;99.90
57108;DHT22;42987;52.916;6.542;2022-10-20T11:19:21;12.60;99.90
57108;DHT22;42987;52.916;6.542;2022-10-20T11:22:10;12.60;99.90
57108;DHT22;42987;52.916;6.542;2022-10-20T11:24:44;12.60;99.90
57108;DHT22;42987;52.916;6.542;2022-10-20T11:27:15;12.60;99.90
57108;DHT22;42987;52.916;6.542;2022-10-20T11:30:18;12.60;99.90
57108;DHT22;42987;52.916;6.542;2022-10-20T11:33:14;12.70;99.90
57108;DHT22;42987;52.916;6.542;2022-10-20T11:35:49;12.70;99.90
57108;DHT22;42987;52.916;6.542;2022-10-20T11:38:29;12.70;99.90
57108;DHT22;42987;52.916;6.542;2022-10-20T11:41:00;12.70;99.90
57108;DHT22;42987;52.916;6.542;2022-10-20T11:43:58;12.70;99.90
57108;DHT22;42987;52.916;6.542;2022-10-20T11:46:33;12.70;99.90
57108;DHT22;42987;52.916;6.542;2022-10-20T11:48:59;12.70;99.90
57108;DHT22;42987;52.916;6.542;2022-10-20T12:02:41;12.70;99.90
57108;DHT22;42987;52.916;6.542;2022-10-20T12:12:53;12.70;99.90
57108;DHT22;42987;52.916;6.542;2022-10-20T12:15:26;12.60;99.90
57108;DHT22;42987;52.916;6.542;2022-10-20T12:18:05;12.70;99.90
57108;DHT22;42987;52.916;6.542;2022-10-20T12:20:48;12.70;99.90
57108;DHT22;42987;52.916;6.542;2022-10-20T12:27:26;12.50;99.90
57108;DHT22;42987;52.916;6.542;2022-10-20T12:34:48;12.30;99.90
57108;DHT22;42987;52.916;6.542;2022-10-20T12:39:44;12.30;99.90
57108;DHT22;42987;52.916;6.542;2022-10-20T12:42:31;12.20;99.90
57108;DHT22;42987;52.916;6.542;2022-10-20T12:45:07;12.20;99.90
57108;DHT22;42987;52.916;6.542;2022-10-20T12:47:35;12.20;99.90
57108;DHT22;42987;52.916;6.542;2022-10-20T12:52:56;12.10;99.90
57108;DHT22;42987;52.916;6.542;2022-10-20T12:55:38;12.10;99.90
57108;DHT22;42987;52.916;6.542;2022-10-20T13:11:42;12.10;99.90
57108;DHT22;42987;52.916;6.542;2022-10-20T13:17:02;12.10;99.90
57108;DHT22;42987;52.916;6.542;2022-10-20T13:19:46;12.10;99.90
57108;DHT22;42987;52.916;6.542;2022-10-20T13:22:43;12.00;99.90
57108;DHT22;42987;52.916;6.542;2022-10-20T13:28:26;12.00;99.90
57108;DHT22;42987;52.916;6.542;2022-10-20T13:36:43;11.90;99.90
57108;DHT22;42987;52.916;6.542;2022-10-20T13:39:47;12.00;99.90
57108;DHT22;42987;52.916;6.542;2022-10-20T13:47:51;11.90;99.90
57108;DHT22;42987;52.916;6.542;2022-10-20T13:50:25;11.90;99.90
57108;DHT22;42987;52.916;6.542;2022-10-20T13:52:58;11.90;99.90
57108;DHT22;42987;52.916;6.542;2022-10-20T13:55:28;11.90;99.90
57108;DHT22;42987;52.916;6.542;2022-10-20T13:58:04;11.90;99.90
57108;DHT22;42987;52.916;6.542;2022-10-20T14:00:32;11.90;99.90
57108;DHT22;42987;52.916;6.542;2022-10-20T14:03:15;11.90;99.90
57108;DHT22;42987;52.916;6.542;2022-10-20T14:05:41;11.90;99.90
57108;DHT22;42987;52.916;6.542;2022-10-20T14:08:08;11.90;99.90
57108;DHT22;42987;52.916;6.542;2022-10-20T14:10:53;11.90;99.90
57108;DHT22;42987;52.916;6.542;2022-10-20T14:13:25;11.90;99.90
57108;DHT22;42987;52.916;6.542;2022-10-20T14:15:54;11.90;99.90
57108;DHT22;42987;52.916;6.542;2022-10-20T14:23:45;11.90;99.90
57108;DHT22;42987;52.916;6.542;2022-10-20T14:26:16;11.90;99.90
57108;DHT22;42987;52.916;6.542;2022-10-20T14:28:43;11.90;99.90
57108;DHT22;42987;52.916;6.542;2022-10-20T14:31:10;11.90;99.90
57108;DHT22;42987;52.916;6.542;2022-10-20T14:33:43;11.90;99.90
57108;DHT22;42987;52.916;6.542;2022-10-20T14:36:25;11.90;99.90
57108;DHT22;42987;52.916;6.542;2022-10-20T14:38:54;12.00;99.90
57108;DHT22;42987;52.916;6.542;2022-10-20T14:41:26;12.00;99.90
57108;DHT22;42987;52.916;6.542;2022-10-20T14:43:56;12.00;99.90
57108;DHT22;42987;52.916;6.542;2022-10-20T14:46:44;12.00;99.90
57108;DHT22;42987;52.916;6.542;2022-10-20T14:49:18;12.00;99.90
57108;DHT22;42987;52.916;6.542;2022-10-20T14:52:03;12.10;99.90
57108;DHT22;42987;52.916;6.542;2022-10-20T14:54:38;12.10;99.90
57108;DHT22;42987;52.916;6.542;2022-10-20T14:59:55;12.10;99.90
57108;DHT22;42987;52.916;6.542;2022-10-20T15:02:38;12.10;99.90
57108;DHT22;42987;52.916;6.542;2022-10-20T15:07:49;12.20;99.90
57108;DHT22;42987;52.916;6.542;2022-10-20T15:10:17;12.10;99.90
57108;DHT22;42987;52.916;6.542;2022-10-20T15:12:47;12.20;99.90
57108;DHT22;42987;52.916;6.542;2022-10-20T15:15:25;12.20;99.90
57108;DHT22;42987;52.916;6.542;2022-10-20T15:23:12;12.20;99.90
57108;DHT22;42987;52.916;6.542;2022-10-20T15:25:46;12.20;99.90
57108;DHT22;42987;52.916;6.542;2022-10-20T15:29:00;12.20;99.90
57108;DHT22;42987;52.916;6.542;2022-10-20T15:31:24;12.20;99.90
57108;DHT22;42987;52.916;6.542;2022-10-20T15:33:49;12.30;99.90
57108;DHT22;42987;52.916;6.542;2022-10-20T15:36:19;12.30;99.90
57108;DHT22;42987;52.916;6.542;2022-10-20T15:38:47;12.30;99.90
57108;DHT22;42987;52.916;6.542;2022-10-20T15:41:15;12.30;99.90
57108;DHT22;42987;52.916;6.542;2022-10-20T15:43:41;12.40;99.90
57108;DHT22;42987;52.916;6.542;2022-10-20T15:46:09;12.40;99.90
57108;DHT22;42987;52.916;6.542;2022-10-20T15:48:35;12.40;99.90
57108;DHT22;42987;52.916;6.542;2022-10-20T15:51:01;12.50;99.90
57108;DHT22;42987;52.916;6.542;2022-10-20T15:53:27;12.50;99.90
57108;DHT22;42987;52.916;6.542;2022-10-20T15:55:53;12.50;99.90
57108;DHT22;42987;52.916;6.542;2022-10-20T15:58:19;12.50;99.90
57108;DHT22;42987;52.916;6.542;2022-10-20T16:00:44;12.50;99.90
57108;DHT22;42987;52.916;6.542;2022-10-20T16:03:16;12.50;99.90
57108;DHT22;42987;52.916;6.542;2022-10-20T16:05:42;12.60;99.90
57108;DHT22;42987;52.916;6.542;2022-10-20T16:08:09;12.60;99.90
57108;DHT22;42987;52.916;6.542;2022-10-20T16:10:35;12.60;99.90
57108;DHT22;42987;52.916;6.542;2022-10-20T16:13:00;12.60;99.90
57108;DHT22;42987;52.916;6.542;2022-10-20T16:15:26;12.60;99.90
57108;DHT22;42987;52.916;6.542;2022-10-20T16:17:52;12.60;99.90
57108;DHT22;42987;52.916;6.542;2022-10-20T16:20:18;12.70;99.90
57108;DHT22;42987;52.916;6.542;2022-10-20T16:22:44;12.70;99.90
57108;DHT22;42987;52.916;6.542;2022-10-20T16:25:10;12.70;99.90
57108;DHT22;42987;52.916;6.542;2022-10-20T16:27:36;12.70;99.90
57108;DHT22;42987;52.916;6.542;2022-10-20T16:30:03;12.70;99.90
57108;DHT22;42987;52.916;6.542;2022-10-20T16:32:29;12.70;99.90
57108;DHT22;42987;52.916;6.542;2022-10-20T16:34:55;12.70;99.90
57108;DHT22;42987;52.916;6.542;2022-10-20T16:37:22;12.70;99.90
57108;DHT22;42987;52.916;6.542;2022-10-20T16:39:48;12.70;99.90
57108;DHT22;42987;52.916;6.542;2022-10-20T16:42:14;12.70;99.90
57108;DHT22;42987;52.916;6.542;2022-10-20T16:44:39;12.70;99.90
57108;DHT22;42987;52.916;6.542;2022-10-20T16:47:05;12.70;99.90
57108;DHT22;42987;52.916;6.542;2022-10-20T16:49:31;12.70;99.90
57108;DHT22;42987;52.916;6.542;2022-10-20T16:51:57;12.70;99.90
57108;DHT22;42987;52.916;6.542;2022-10-20T16:54:24;12.70;99.90
57108;DHT22;42987;52.916;6.542;2022-10-20T16:56:50;12.70;99.90
57108;DHT22;42987;52.916;6.542;2022-10-20T16:59:16;12.70;99.90
57108;DHT22;42987;52.916;6.542;2022-10-20T17:01:42;12.70;99.90
57108;DHT22;42987;52.916;6.542;2022-10-20T17:04:10;12.70;99.90
57108;DHT22;42987;52.916;6.542;2022-10-20T17:06:36;12.70;99.90
57108;DHT22;42987;52.916;6.542;2022-10-20T17:09:03;12.80;99.90
57108;DHT22;42987;52.916;6.542;2022-10-20T17:11:35;12.80;99.90
57108;DHT22;42987;52.916;6.542;2022-10-20T17:14:01;12.80;99.90
57108;DHT22;42987;52.916;6.542;2022-10-20T17:16:32;12.90;99.90
57108;DHT22;42987;52.916;6.542;2022-10-20T17:19:02;12.90;99.90
57108;DHT22;42987;52.916;6.542;2022-10-20T17:21:29;13.00;99.90
57108;DHT22;42987;52.916;6.542;2022-10-20T17:23:55;13.00;99.90
57108;DHT22;42987;52.916;6.542;2022-10-20T17:26:23;13.00;99.90
57108;DHT22;42987;52.916;6.542;2022-10-20T17:28:54;13.00;99.90
57108;DHT22;42987;52.916;6.542;2022-10-20T17:31:20;13.10;99.90
57108;DHT22;42987;52.916;6.542;2022-10-20T17:33:46;13.10;99.90
57108;DHT22;42987;52.916;6.542;2022-10-20T17:36:12;13.10;99.90
57108;DHT22;42987;52.916;6.542;2022-10-20T17:38:39;13.10;99.90
57108;DHT22;42987;52.916;6.542;2022-10-20T17:41:13;13.20;99.90
57108;DHT22;42987;52.916;6.542;2022-10-20T17:43:39;13.20;99.90
57108;DHT22;42987;52.916;6.542;2022-10-20T17:46:10;13.20;99.90
57108;DHT22;42987;52.916;6.542;2022-10-20T17:48:39;13.20;99.90
57108;DHT22;42987;52.916;6.542;2022-10-20T17:51:26;13.20;99.90
57108;DHT22;42987;52.916;6.542;2022-10-20T17:53:54;13.20;99.90
57108;DHT22;42987;52.916;6.542;2022-10-20T17:56:23;13.20;99.90
57108;DHT22;42987;52.916;6.542;2022-10-20T17:58:52;13.30;99.90
57108;DHT22;42987;52.916;6.542;2022-10-20T18:03:44;13.20;99.90
57108;DHT22;42987;52.916;6.542;2022-10-20T18:06:18;13.30;99.90
57108;DHT22;42987;52.916;6.542;2022-10-20T18:08:45;13.20;99.90
57108;DHT22;42987;52.916;6.542;2022-10-20T18:11:23;13.20;99.90
57108;DHT22;42987;52.916;6.542;2022-10-20T18:13:49;13.20;99.90
57108;DHT22;42987;52.916;6.542;2022-10-20T18:16:16;13.10;99.90
57108;DHT22;42987;52.916;6.542;2022-10-20T18:18:43;13.10;99.90